Time;durP1;ratioP1;P1;durP2;ratioP2;P2;SDS_P1;SDS_P2;PMS_P1;PMS_P2;Temp;Humidity;BMP_temperature;BMP_pressure;BME280_temperature;BME280_humidity;BME280_pressure;Samples;Min_cycle;Max_cycle;Signal;HPM_P1;HPM_P2
2022/02/10 00:05:32;;;;;;;17.92;7.51;;;;;;;;;;357720;150;863728;-58
2022/02/10 00:07:29;;;;;;;33.88;14.13;;;;;;;;;;356419;149;859346;-56
2022/02/10 00:13:25;;;;;;;39.26;17.74;;;;;;;;;;354290;148;857362;-56
2022/02/10 00:18:31;;;;;;;15.86;7.91;;;;;;;;;;345045;152;865010;-57
2022/02/10 00:20:36;;;;;;;18.12;8.93;;;;;;;;;;345675;153;857676;-57
2022/02/10 00:21:44;;;;;;;18.23;8.18;;;;;;;;;;345348;152;864966;-57
2022/02/10 00:23:09;;;;;;;15.98;8.09;;;;;;;;;;345369;154;856735;-56
2022/02/10 00:34:14;;;;;;;31.09;14.85;;;;;;;;;;339006;155;857706;-58
2022/02/10 00:35:26;;;;;;;19.26;9.78;;;;;;;;;;348203;151;857764;-58
2022/02/10 00:36:28;;;;;;;18.17;10.35;;;;;;;;;;343038;153;857294;-58
2022/02/10 00:37:37;;;;;;;23.02;10.19;;;;;;;;;;347921;151;857258;-58
2022/02/10 00:38:35;;;;;;;22.54;9.90;;;;;;;;;;349000;151;857112;-58
2022/02/10 00:40:55;;;;;;;17.98;9.66;;;;;;;;;;346092;151;857292;-58
2022/02/10 00:41:57;;;;;;;24.71;9.79;;;;;;;;;;347536;153;857082;-58
2022/02/10 00:43:00;;;;;;;18.43;9.22;;;;;;;;;;350184;151;857238;-57
2022/02/10 00:44:01;;;;;;;18.80;9.15;;;;;;;;;;349049;154;859900;-57
2022/02/10 00:45:03;;;;;;;22.06;9.87;;;;;;;;;;347323;151;859074;-57
2022/02/10 00:46:05;;;;;;;17.01;8.94;;;;;;;;;;346746;151;860032;-56
2022/02/10 00:47:07;;;;;;;21.09;9.83;;;;;;;;;;346699;152;859700;-57
2022/02/10 00:48:09;;;;;;;15.89;8.01;;;;;;;;;;347252;151;858766;-57
2022/02/10 00:49:11;;;;;;;18.48;9.51;;;;;;;;;;348373;151;864990;-57
2022/02/10 00:50:14;;;;;;;22.78;9.00;;;;;;;;;;348906;151;857661;-57
2022/02/10 00:51:16;;;;;;;18.69;8.88;;;;;;;;;;347456;153;859560;-57
2022/02/10 00:52:19;;;;;;;17.19;9.43;;;;;;;;;;348124;151;865545;-57
2022/02/10 00:53:27;;;;;;;21.10;9.49;;;;;;;;;;345600;151;859423;-56
2022/02/10 00:54:26;;;;;;;19.06;9.20;;;;;;;;;;347998;153;856286;-57
2022/02/10 00:55:29;;;;;;;19.45;9.53;;;;;;;;;;347159;151;857259;-58
2022/02/10 00:56:31;;;;;;;18.38;8.26;;;;;;;;;;348373;152;857222;-58
2022/02/10 00:57:33;;;;;;;24.19;13.43;;;;;;;;;;347832;153;865427;-57
2022/02/10 00:58:37;;;;;;;27.31;13.29;;;;;;;;;;349697;153;856020;-57
2022/02/10 01:02:20;;;;;;;47.36;20.93;;;;;;;;;;347350;151;857201;-56
2022/02/10 01:10:25;;;;;;;16.04;8.83;;;;;;;;;;346074;151;858955;-58
2022/02/10 01:12:31;;;;;;;20.79;8.93;;;;;;;;;;350585;152;857105;-57
2022/02/10 01:30:12;;;;;;;17.32;8.39;;;;;;;;;;351034;151;865902;-57
2022/02/10 01:31:14;;;;;;;18.37;9.69;;;;;;;;;;350000;150;865106;-57
2022/02/10 01:32:16;;;;;;;16.81;9.23;;;;;;;;;;349434;152;857138;-56
2022/02/10 01:33:19;;;;;;;18.65;9.93;;;;;;;;;;350556;152;857304;-57
2022/02/10 01:34:21;;;;;;;20.08;12.08;;;;;;;;;;347018;153;856520;-57
2022/02/10 01:35:24;;;;;;;23.08;10.91;;;;;;;;;;344479;152;856278;-56
2022/02/10 01:36:26;;;;;;;21.82;9.66;;;;;;;;;;344682;154;866631;-57
2022/02/10 01:37:28;;;;;;;19.97;10.02;;;;;;;;;;347022;154;857235;-57
2022/02/10 01:38:29;;;;;;;17.29;9.44;;;;;;;;;;350628;151;857180;-57
2022/02/10 01:39:35;;;;;;;15.69;9.12;;;;;;;;;;352988;150;857368;-56
2022/02/10 02:03:57;;;;;;;11.52;7.56;;;;;;;;;;347023;153;857348;-57
2022/02/10 02:05:00;;;;;;;10.99;7.36;;;;;;;;;;350172;151;859839;-57
2022/02/10 02:06:08;;;;;;;7.81;4.31;;;;;;;;;;345954;153;866162;-56
2022/02/10 02:07:05;;;;;;;11.59;7.75;;;;;;;;;;352268;149;860728;-59
2022/02/10 02:08:08;;;;;;;13.58;8.41;;;;;;;;;;346356;152;859163;-59
2022/02/10 02:09:12;;;;;;;10.94;7.84;;;;;;;;;;344609;152;865134;-59
2022/02/10 02:10:14;;;;;;;9.68;6.77;;;;;;;;;;345047;154;857966;-59
2022/02/10 02:11:16;;;;;;;11.00;6.52;;;;;;;;;;344092;153;859174;-59
2022/02/10 02:12:17;;;;;;;11.99;7.53;;;;;;;;;;345156;154;863927;-58
2022/02/10 02:13:19;;;;;;;15.08;8.35;;;;;;;;;;346996;152;866385;-59
2022/02/10 02:14:22;;;;;;;10.72;7.91;;;;;;;;;;347108;153;859324;-58
2022/02/10 02:15:25;;;;;;;13.12;7.54;;;;;;;;;;345993;154;857571;-58
2022/02/10 02:16:27;;;;;;;10.80;7.18;;;;;;;;;;352646;151;860132;-58
2022/02/10 02:17:28;;;;;;;13.05;8.09;;;;;;;;;;346911;152;859125;-58
2022/02/10 02:18:30;;;;;;;13.65;8.56;;;;;;;;;;347567;151;857858;-57
2022/02/10 02:19:32;;;;;;;13.64;7.71;;;;;;;;;;357242;150;857381;-58
2022/02/10 02:20:33;;;;;;;11.25;7.19;;;;;;;;;;357033;147;857428;-58
2022/02/10 02:21:36;;;;;;;13.72;8.09;;;;;;;;;;359483;147;857688;-58
2022/02/10 02:22:38;;;;;;;12.37;7.62;;;;;;;;;;353571;148;866187;-57
2022/02/10 02:23:40;;;;;;;10.43;6.67;;;;;;;;;;354598;147;860970;-57
2022/02/10 02:24:41;;;;;;;12.67;7.29;;;;;;;;;;357075;147;859907;-56
2022/02/10 02:25:44;;;;;;;12.62;7.61;;;;;;;;;;357516;149;865024;-57
2022/02/10 02:26:46;;;;;;;11.25;7.71;;;;;;;;;;356775;148;857270;-57
2022/02/10 02:27:50;;;;;;;13.00;7.09;;;;;;;;;;356601;148;864955;-57
2022/02/10 02:28:57;;;;;;;10.54;7.19;;;;;;;;;;356363;149;857268;-57
2022/02/10 02:30:09;;;;;;;12.33;7.95;;;;;;;;;;356843;150;860686;-57
2022/02/10 02:31:04;;;;;;;10.63;7.87;;;;;;;;;;355410;148;866729;-57
2022/02/10 02:32:09;;;;;;;10.07;7.10;;;;;;;;;;355874;148;857200;-57
2022/02/10 02:36:17;;;;;;;8.29;5.33;;;;;;;;;;356111;149;858891;-57
2022/02/10 02:37:21;;;;;;;8.43;6.32;;;;;;;;;;355193;150;865909;-57
2022/02/10 02:38:20;;;;;;;11.48;6.81;;;;;;;;;;357208;147;856793;-59
2022/02/10 03:05:24;;;;;;;9.23;6.49;;;;;;;;;;344247;153;859766;-57
2022/02/10 03:06:28;;;;;;;11.61;8.08;;;;;;;;;;345252;155;857279;-58
2022/02/10 03:08:26;;;;;;;13.97;8.16;;;;;;;;;;356724;147;859047;-56
2022/02/10 03:09:28;;;;;;;13.89;8.65;;;;;;;;;;357007;149;864909;-56
2022/02/10 03:10:56;;;;;;;12.67;7.57;;;;;;;;;;358026;148;857943;-56
2022/02/10 03:11:39;;;;;;;14.38;8.49;;;;;;;;;;357645;148;864876;-59
2022/02/10 03:12:40;;;;;;;14.12;8.62;;;;;;;;;;355240;150;858661;-59
2022/02/10 03:14:29;;;;;;;13.61;8.40;;;;;;;;;;356069;147;865990;-56
2022/02/10 03:14:52;;;;;;;10.85;8.00;;;;;;;;;;342722;149;865698;-57
2022/02/10 03:16:18;;;;;;;12.69;8.74;;;;;;;;;;357085;149;859535;-56
2022/02/10 03:17:36;;;;;;;13.43;8.53;;;;;;;;;;352980;148;864569;-57
2022/02/10 03:18:25;;;;;;;13.68;8.22;;;;;;;;;;354228;147;859201;-57
2022/02/10 03:20:45;;;;;;;14.44;9.18;;;;;;;;;;354954;150;858477;-58
2022/02/10 04:12:48;;;;;;;13.51;8.48;;;;;;;;;;348021;149;866614;-56
2022/02/10 04:14:48;;;;;;;17.26;11.74;;;;;;;;;;358886;147;857229;-56
2022/02/10 04:17:27;;;;;;;19.01;11.33;;;;;;;;;;343033;153;856721;-55
2022/02/10 04:22:25;;;;;;;18.54;11.36;;;;;;;;;;354050;148;856141;-56
2022/02/10 04:23:32;;;;;;;16.13;11.41;;;;;;;;;;352588;150;858764;-56
2022/02/10 04:28:19;;;;;;;17.07;11.36;;;;;;;;;;350466;149;865042;-56
2022/02/10 04:43:26;;;;;;;20.11;11.78;;;;;;;;;;338204;149;857059;-57
2022/02/10 04:44:42;;;;;;;18.07;11.09;;;;;;;;;;352391;148;863619;-57
2022/02/10 04:59:37;;;;;;;13.23;7.97;;;;;;;4.05;83.15;99959.45;370308;144;856380;-57
2022/02/10 05:04:52;;;;;;;11.22;6.76;;;;;;;4.29;81.77;99953.91;369135;144;856906;-57
2022/02/10 05:19:23;;;;;;;8.96;6.62;;;;;;;;;;340054;155;856763;-55
2022/02/10 05:21:42;;;;;;;11.95;7.70;;;;;;;;;;368870;144;858637;-57
2022/02/10 05:22:38;;;;;;;13.04;7.54;;;;;;;;;;361654;144;858487;-59
2022/02/10 05:31:51;;;;;;;14.81;9.73;;;;;;;;;;364976;144;859883;-59
2022/02/10 05:32:50;;;;;;;15.11;10.30;;;;;;;;;;361782;144;860297;-58
2022/02/10 05:34:37;;;;;;;16.84;10.73;;;;;;;;;;365585;144;856594;-59
2022/02/10 05:35:42;;;;;;;13.06;10.08;;;;;;;;;;364182;144;862400;-59
2022/02/10 05:36:41;;;;;;;14.59;10.02;;;;;;;;;;364737;144;857393;-59
2022/02/10 05:37:48;;;;;;;11.04;7.81;;;;;;;;;;365478;144;859209;-59
2022/02/10 05:38:53;;;;;;;18.02;12.57;;;;;;;;;;364779;147;857314;-60
2022/02/10 05:39:52;;;;;;;19.29;10.89;;;;;;;;;;366199;144;858691;-60
2022/02/10 05:44:36;;;;;;;15.30;11.23;;;;;;;;;;365759;144;856470;-58
2022/02/10 05:45:46;;;;;;;16.91;11.36;;;;;;;;;;366821;144;858811;-57
2022/02/10 05:46:53;;;;;;;15.71;10.40;;;;;;;;;;364835;145;857192;-55
2022/02/10 05:49:12;;;;;;;18.42;10.81;;;;;;;;;;365244;144;857129;-58
2022/02/10 05:51:42;;;;;;;17.19;11.34;;;;;;;;;;365386;144;856890;-57
2022/02/10 06:46:09;;;;;;;19.83;12.15;;;;;;;;;;363375;144;863538;-58
2022/02/10 06:48:05;;;;;;;18.42;11.81;;;;;;;;;;364945;144;856324;-57
2022/02/10 06:51:47;;;;;;;17.38;10.88;;;;;;;;;;337464;156;856877;-57
2022/02/10 06:52:59;;;;;;;18.77;11.05;;;;;;;;;;345845;144;856702;-59
2022/02/10 07:12:29;;;;;;;16.75;10.03;;;;;;;;;;343567;154;856564;-58
2022/02/10 07:14:58;;;;;;;15.58;8.32;;;;;;;;;;362463;145;856750;-57
2022/02/10 07:48:18;;;;;;;13.38;8.04;;;;;;;;;;348546;152;856119;-58
2022/02/10 07:56:37;;;;;;;14.22;8.56;;;;;;;;;;359049;145;863794;-59
2022/02/10 07:57:40;;;;;;;13.22;8.72;;;;;;;;;;359368;146;857193;-59
2022/02/10 08:00:03;;;;;;;12.97;9.16;;;;;;;;;;347477;152;856546;-57
2022/02/10 08:04:27;;;;;;;15.44;9.76;;;;;;;;;;345658;153;856333;-58
2022/02/10 08:26:34;;;;;;;13.91;8.94;;;;;;;;;;347970;150;856609;-56
2022/02/10 08:49:43;;;;;;;12.18;8.22;;;;;;;;;;344087;154;857555;-58
2022/02/10 08:54:51;;;;;;;14.29;9.66;;;;;;;;;;359100;146;860251;-56
2022/02/10 08:59:00;;;;;;;15.78;9.66;;;;;;;;;;366345;144;856075;-57
2022/02/10 09:01:33;;;;;;;12.64;9.66;;;;;;;;;;341007;156;857947;-57
2022/02/10 09:04:36;;;;;;;13.04;9.04;;;;;;;;;;364403;144;859752;-57
2022/02/10 09:14:13;;;;;;;12.24;7.69;;;;;;;;;;369176;145;860303;-59
2022/02/10 09:47:24;;;;;;;12.19;7.66;;;;;;;;;;364438;144;856853;-59
2022/02/10 09:49:45;;;;;;;7.84;5.29;;;;;;;;;;364484;144;856721;-60
2022/02/10 09:55:15;;;;;;;10.83;7.62;;;;;;;;;;364422;144;856990;-59
2022/02/10 10:00:14;;;;;;;16.29;8.53;;;;;;;;;;363695;144;856069;-59
2022/02/10 10:01:21;;;;;;;11.33;7.75;;;;;;;;;;362671;145;856041;-58
2022/02/10 10:02:30;;;;;;;15.54;8.22;;;;;;;;;;363039;144;856262;-58
2022/02/10 10:03:40;;;;;;;15.14;9.23;;;;;;;;;;365318;144;856384;-59
2022/02/10 10:19:45;;;;;;;16.52;9.54;;;;;;;7.11;69.38;100054.33;360596;147;856172;-58
2022/02/10 10:22:28;;;;;;;13.52;8.10;;;;;;;7.07;69.35;100060.30;362344;145;856344;-58
2022/02/10 10:25:01;;;;;;;17.21;9.01;;;;;;;7.08;69.57;100061.19;364399;146;856646;-58
2022/02/10 10:50:38;;;;;;;15.77;8.88;;;;;;;7.29;68.89;100048.47;363499;145;856567;-59
2022/02/10 10:52:00;;;;;;;10.56;7.98;;;;;;;7.36;68.89;100046.78;363089;144;856102;-59
2022/02/10 10:53:04;;;;;;;12.40;7.76;;;;;;;7.41;68.19;100039.09;360367;146;856944;-59
2022/02/10 10:54:21;;;;;;;10.71;7.43;;;;;;;7.42;67.99;100045.98;362512;145;856129;-58
2022/02/10 10:55:11;;;;;;;11.49;7.84;;;;;;;7.43;68.15;100051.16;359782;145;856316;-59
2022/02/10 10:56:12;;;;;;;10.94;7.58;;;;;;;7.41;67.83;100046.83;360870;146;863964;-59
2022/02/10 10:57:19;;;;;;;11.72;8.33;;;;;;;7.40;68.12;100055.41;362204;145;863918;-59
2022/02/10 10:58:30;;;;;;;12.47;8.47;;;;;;;7.42;68.27;100051.13;362059;144;856273;-59
2022/02/10 10:59:36;;;;;;;13.49;7.79;;;;;;;7.44;68.31;100049.42;363200;144;857503;-59
2022/02/10 11:01:08;;;;;;;9.27;6.68;;;;;;;7.45;67.96;100061.45;362840;144;857245;-59
2022/02/10 11:06:03;;;;;;;8.58;5.04;;;;;;;7.38;67.76;100049.38;365762;144;856556;-57
2022/02/10 11:37:38;;;;;;;5.11;4.02;;;;;;;7.18;68.13;100028.62;363160;145;856161;-57
2022/02/10 11:38:44;;;;;;;7.58;5.14;;;;;;;7.15;67.87;100035.48;361843;145;856108;-57
2022/02/10 11:39:55;;;;;;;6.56;5.02;;;;;;;7.10;68.18;100034.58;363366;145;856035;-58
2022/02/10 11:43:37;;;;;;;8.58;5.49;;;;;;;7.10;68.30;100031.16;364035;144;856176;-58
2022/02/10 12:40:05;;;;;;;7.42;4.50;;;;;;;;;;363105;148;856693;-58
2022/02/10 13:25:02;;;;;;;4.36;3.21;;;;;;;;;;355407;147;856186;-56
2022/02/10 13:25:58;;;;;;;4.53;2.78;;;;;;;;;;340202;150;857089;-57
2022/02/10 13:27:54;;;;;;;3.82;2.97;;;;;;;;;;349201;151;856356;-57
2022/02/10 13:30:28;;;;;;;3.37;2.42;;;;;;;;;;350434;150;856305;-54
2022/02/10 13:32:40;;;;;;;3.17;1.94;;;;;;;;;;350053;150;863458;-54
2022/02/10 13:35:34;;;;;;;3.53;2.23;;;;;;;;;;350326;151;856349;-55
2022/02/10 13:48:02;;;;;;;2.63;1.91;;;;;;;;;;347385;150;856954;-56
2022/02/10 13:48:37;;;;;;;4.73;2.25;;;;;;;;;;349583;150;856334;-56
2022/02/10 14:11:48;;;;;;;6.19;2.44;;;;;;;;;;356682;149;856055;-57
2022/02/10 14:13:23;;;;;;;3.64;2.49;;;;;;;;;;354672;147;856252;-57
2022/02/10 14:14:32;;;;;;;4.32;2.43;;;;;;;;;;352697;147;856382;-57
2022/02/10 14:16:38;;;;;;;2.58;2.06;;;;;;;;;;355312;150;856460;-56
2022/02/10 14:17:48;;;;;;;4.79;3.09;;;;;;;;;;356383;146;856611;-58
2022/02/10 14:18:51;;;;;;;5.28;3.54;;;;;;;;;;357349;148;856545;-58
2022/02/10 14:20:00;;;;;;;3.06;2.59;;;;;;;;;;357790;148;856649;-58
2022/02/10 14:21:07;;;;;;;5.64;3.12;;;;;;;;;;359555;147;856140;-59
2022/02/10 14:22:11;;;;;;;4.69;3.11;;;;;;;;;;359132;145;856063;-58
2022/02/10 14:25:41;;;;;;;4.96;3.31;;;;;;;;;;347995;151;856262;-59
2022/02/10 14:26:46;;;;;;;5.38;3.86;;;;;;;;;;355551;148;856131;-59
2022/02/10 14:27:46;;;;;;;5.92;4.04;;;;;;;;;;358109;148;856529;-60
2022/02/10 14:28:47;;;;;;;8.00;4.16;;;;;;;;;;359277;146;856792;-59
2022/02/10 14:29:49;;;;;;;6.39;3.57;;;;;;;;;;359717;146;856235;-59
2022/02/10 14:30:50;;;;;;;6.12;3.59;;;;;;;;;;359535;148;863758;-59
2022/02/10 14:31:54;;;;;;;5.91;3.78;;;;;;;;;;359600;145;863808;-59
2022/02/10 14:32:58;;;;;;;5.53;3.43;;;;;;;;;;358490;146;856705;-63
2022/02/10 14:33:59;;;;;;;5.21;3.19;;;;;;;;;;358511;145;857400;-59
2022/02/10 14:35:10;;;;;;;7.05;3.69;;;;;;;;;;360941;146;856079;-57
2022/02/10 14:37:49;;;;;;;7.48;4.67;;;;;;;;;;351845;150;864038;-56
2022/02/10 14:42:39;;;;;;;11.01;4.81;;;;;;;;;;360103;145;856375;-56
2022/02/10 15:10:45;;;;;;;10.80;5.07;;;;;;;;;;358323;146;856197;-61
2022/02/10 15:11:25;;;;;;;12.72;7.82;;;;;;;;;;359936;148;856202;-61
2022/02/10 15:12:54;;;;;;;12.46;7.56;;;;;;;;;;359279;146;856717;-68
2022/02/10 15:16:31;;;;;;;12.96;8.36;;;;;;;;;;366455;145;856307;-65
2022/02/10 15:31:57;;;;;;;16.22;9.41;;;;;;;;;;360058;145;856478;-58
2022/02/10 15:50:01;;;;;;;21.02;12.46;;;;;;;;;;344103;153;856657;-59
2022/02/10 15:55:52;;;;;;;23.57;13.51;;;;;;;;;;359496;145;856488;-58
2022/02/10 15:56:51;;;;;;;20.59;12.78;;;;;;;;;;357441;146;856237;-59
2022/02/10 16:10:57;;;;;;;22.68;13.23;;;;;;;;;;343472;154;856060;-58
2022/02/10 16:16:42;;;;;;;21.81;12.67;;;;;;;;;;343622;152;856065;-59
2022/02/10 16:17:04;;;;;;;21.91;13.37;;;;;;;;;;341952;154;856543;-59
2022/02/10 16:18:05;;;;;;;20.68;12.29;;;;;;;;;;342828;154;856541;-62
2022/02/10 16:19:06;;;;;;;21.12;13.48;;;;;;;;;;348107;150;856353;-62
2022/02/10 16:20:08;;;;;;;23.15;13.46;;;;;;;;;;362908;144;856306;-61
2022/02/10 16:21:10;;;;;;;20.50;13.23;;;;;;;;;;362764;146;856483;-62
2022/02/10 16:23:20;;;;;;;21.09;13.72;;;;;;;;;;362906;145;864160;-60
2022/02/10 16:24:30;;;;;;;22.01;13.37;;;;;;;;;;363690;145;856680;-59
2022/02/10 16:25:26;;;;;;;20.83;13.17;;;;;;;;;;363024;146;856504;-59
2022/02/10 16:26:40;;;;;;;23.54;13.74;;;;;;;;;;362559;145;856814;-59
2022/02/10 16:27:33;;;;;;;25.13;14.64;;;;;;;;;;360134;144;856157;-59
2022/02/10 16:28:35;;;;;;;23.09;13.96;;;;;;;;;;362492;146;856651;-60
2022/02/10 16:29:37;;;;;;;24.63;14.83;;;;;;;;;;363427;145;856552;-60
2022/02/10 16:30:39;;;;;;;21.97;14.18;;;;;;;;;;363540;146;856615;-59
2022/02/10 16:31:41;;;;;;;23.83;14.46;;;;;;;;;;363432;145;856238;-59
2022/02/10 16:32:42;;;;;;;23.14;14.29;;;;;;;;;;362713;146;863805;-60
2022/02/10 16:33:44;;;;;;;22.39;14.11;;;;;;;;;;363215;145;863818;-59
2022/02/10 16:34:45;;;;;;;28.12;16.68;;;;;;;;;;363621;145;864273;-60
2022/02/10 16:35:47;;;;;;;27.86;16.21;;;;;;;;;;363468;144;863963;-59
2022/02/10 16:36:48;;;;;;;27.86;16.31;;;;;;;;;;362763;146;863813;-60
2022/02/10 16:37:50;;;;;;;25.81;15.91;;;;;;;;;;362442;146;863787;-59
2022/02/10 16:38:51;;;;;;;30.19;17.56;;;;;;;;;;362550;144;856071;-60
2022/02/10 16:39:53;;;;;;;30.66;17.38;;;;;;;;;;363299;146;856567;-59
2022/02/10 16:40:55;;;;;;;30.11;17.66;;;;;;;;;;362730;145;857044;-58
2022/02/10 16:41:57;;;;;;;27.85;16.63;;;;;;;;;;363393;144;864109;-59
2022/02/10 16:42:59;;;;;;;29.62;17.06;;;;;;;;;;362756;145;856078;-60
2022/02/10 16:44:00;;;;;;;27.99;17.33;;;;;;;;;;362750;146;863838;-61
2022/02/10 16:45:02;;;;;;;30.33;16.76;;;;;;;;;;363432;145;856037;-60
2022/02/10 16:46:04;;;;;;;28.23;17.36;;;;;;;;;;364395;144;856644;-60
2022/02/10 16:47:10;;;;;;;28.71;17.02;;;;;;;;;;363647;146;856154;-58
2022/02/10 16:48:11;;;;;;;27.13;15.99;;;;;;;;;;362964;145;863886;-59
2022/02/10 16:49:16;;;;;;;26.28;16.49;;;;;;;;;;362670;146;856246;-63
2022/02/10 16:50:19;;;;;;;26.76;16.09;;;;;;;;;;362905;146;856795;-62
2022/02/10 16:51:23;;;;;;;25.61;15.78;;;;;;;;;;363863;146;856555;-60
2022/02/10 16:52:31;;;;;;;27.51;16.28;;;;;;;;;;363598;145;856469;-61
2022/02/10 16:53:29;;;;;;;27.59;16.82;;;;;;;;;;363603;144;856233;-60
2022/02/10 16:54:36;;;;;;;25.75;16.46;;;;;;;;;;362791;146;856063;-60
2022/02/10 16:55:58;;;;;;;24.06;16.59;;;;;;;;;;362745;145;856253;-59
2022/02/10 16:57:03;;;;;;;25.74;16.12;;;;;;;;;;361954;145;856527;-62
2022/02/10 17:02:18;;;;;;;26.66;16.27;;;;;;;;;;363273;144;856442;-59
2022/02/10 17:03:21;;;;;;;25.88;16.03;;;;;;;;;;361258;145;856064;-58
2022/02/10 17:04:40;;;;;;;25.69;16.06;;;;;;;;;;362123;145;856038;-59
2022/02/10 17:17:26;;;;;;;26.28;17.63;;;;;;;;;;364719;144;856038;-62
2022/02/10 17:20:50;;;;;;;26.73;17.02;;;;;;;;;;363237;145;856119;-58
2022/02/10 17:25:56;;;;;;;26.93;16.03;;;;;;;;;;362732;144;856183;-59
2022/02/10 17:27:03;;;;;;;26.56;17.00;;;;;;;;;;362513;144;864071;-59
2022/02/10 17:27:58;;;;;;;29.19;17.81;;;;;;;;;;361848;145;856043;-58
2022/02/10 17:29:07;;;;;;;26.86;18.32;;;;;;;;;;363686;145;863952;-59
2022/02/10 17:30:46;;;;;;;26.63;18.25;;;;;;;;;;363801;144;856087;-58
2022/02/10 17:31:37;;;;;;;31.37;17.83;;;;;;;;;;359559;146;864056;-58
2022/02/10 17:33:50;;;;;;;30.80;19.19;;;;;;;;;;364092;144;856652;-59
2022/02/10 17:36:12;;;;;;;33.26;19.70;;;;;;;;;;362993;145;856750;-58
2022/02/10 17:52:35;;;;;;;28.82;17.72;;;;;;;2.79;78.32;100110.23;372751;141;875153;-59
2022/02/10 17:53:38;;;;;;;24.56;15.29;;;;;;;2.71;78.37;100115.13;364484;147;856059;-56
2022/02/10 17:54:37;;;;;;;26.65;14.72;;;;;;;2.71;78.41;100112.56;358108;147;857116;-59
2022/02/10 17:55:39;;;;;;;20.61;13.16;;;;;;;2.71;78.26;100115.13;356700;148;863672;-60
2022/02/10 17:56:41;;;;;;;20.21;11.98;;;;;;;2.73;78.05;100112.63;357622;148;856407;-58
2022/02/10 17:57:43;;;;;;;17.79;12.09;;;;;;;2.76;78.10;100112.70;358151;147;857089;-59
2022/02/10 17:58:45;;;;;;;22.55;13.08;;;;;;;2.78;77.90;100111.05;357556;147;856108;-59
2022/02/10 17:59:47;;;;;;;19.79;12.99;;;;;;;2.85;77.93;100112.94;356561;149;863740;-60
2022/02/10 18:00:50;;;;;;;20.55;13.01;;;;;;;2.93;77.74;100113.12;358552;147;856748;-59
2022/02/10 18:01:52;;;;;;;19.67;12.44;;;;;;;3.01;77.37;100103.10;356985;148;856936;-60
2022/02/10 18:02:58;;;;;;;19.62;12.45;;;;;;;3.10;77.07;100099.89;356872;147;856339;-59
2022/02/10 18:03:59;;;;;;;19.56;12.01;;;;;;;3.17;76.84;100106.89;356320;147;856542;-59
2022/02/10 18:05:02;;;;;;;17.66;11.96;;;;;;;3.26;76.72;100104.59;357902;147;863566;-60
2022/02/10 18:07:08;;;;;;;18.09;12.45;;;;;;;3.42;76.05;100115.19;359489;147;865301;-60
2022/02/10 18:08:14;;;;;;;19.81;12.61;;;;;;;3.51;75.82;100107.73;358551;147;856201;-60
2022/02/10 18:09:39;;;;;;;21.60;13.20;;;;;;;3.55;74.96;100114.66;357024;147;864389;-59
2022/02/10 18:11:00;;;;;;;19.02;13.24;;;;;;;3.61;74.69;100119.03;356407;147;863975;-60
2022/02/10 18:14:10;;;;;;;18.41;12.53;;;;;;;3.75;74.75;100112.56;357478;147;857330;-59
2022/02/10 18:15:16;;;;;;;17.99;11.81;;;;;;;3.75;74.10;100116.80;356344;147;863770;-60
2022/02/10 18:16:25;;;;;;;19.01;11.78;;;;;;;3.82;74.16;100115.26;355623;149;856573;-60
2022/02/10 18:17:28;;;;;;;19.72;13.04;;;;;;;3.89;73.97;100115.41;356855;147;856681;-59
2022/02/10 18:18:37;;;;;;;20.93;12.66;;;;;;;3.92;73.79;100110.36;356650;147;857094;-59
2022/02/10 18:19:48;;;;;;;18.80;12.29;;;;;;;3.99;73.53;100111.37;358315;147;863731;-60
2022/02/10 18:20:53;;;;;;;19.26;12.66;;;;;;;4.03;72.99;100108.03;350219;150;863834;-60
2022/02/10 18:23:05;;;;;;;21.17;13.03;;;;;;;;;;356226;147;863613;-60
2022/02/10 18:24:18;;;;;;;19.57;13.32;;;;;;;;;;358479;148;856344;-60
2022/02/10 18:25:18;;;;;;;21.30;14.43;;;;;;;;;;356206;148;857079;-60
2022/02/10 18:26:14;;;;;;;23.27;14.46;;;;;;;;;;354554;149;856496;-60
2022/02/10 18:30:39;;;;;;;30.49;16.95;;;;;;;;;;359445;147;856522;-60
2022/02/10 19:01:45;;;;;;;33.59;20.24;;;;;;;;;;356817;147;856589;-60
2022/02/10 19:08:09;;;;;;;35.29;19.90;;;;;;;;;;357175;148;857017;-60
2022/02/10 19:09:09;;;;;;;33.96;20.54;;;;;;;;;;355036;147;856757;-60
2022/02/10 19:10:06;;;;;;;32.12;20.68;;;;;;;;;;356183;147;856812;-60
2022/02/10 19:11:09;;;;;;;35.67;20.85;;;;;;;;;;356804;148;857298;-60
2022/02/10 19:12:20;;;;;;;34.98;20.39;;;;;;;;;;356424;148;863602;-60
2022/02/10 19:13:22;;;;;;;30.72;19.24;;;;;;;;;;357346;149;856323;-60
2022/02/10 19:14:24;;;;;;;35.59;21.61;;;;;;;;;;358658;148;856957;-59
2022/02/10 19:15:34;;;;;;;38.19;21.78;;;;;;;;;;356612;147;857128;-58
2022/02/10 19:16:36;;;;;;;37.45;20.99;;;;;;;;;;356309;148;856579;-60
2022/02/10 19:17:37;;;;;;;37.67;20.82;;;;;;;;;;359040;148;863687;-60
2022/02/10 19:18:39;;;;;;;36.62;21.11;;;;;;;;;;357708;150;863602;-57
2022/02/10 19:19:41;;;;;;;39.32;22.71;;;;;;;;;;356294;147;863763;-58
2022/02/10 19:20:42;;;;;;;38.50;22.48;;;;;;;;;;349186;150;856968;-59
2022/02/10 19:21:44;;;;;;;41.56;23.83;;;;;;;;;;357665;147;856565;-59
2022/02/10 19:22:47;;;;;;;40.47;22.61;;;;;;;;;;359794;148;856555;-59
2022/02/10 19:23:48;;;;;;;39.38;22.83;;;;;;;;;;358248;147;858911;-59
2022/02/10 19:24:50;;;;;;;45.38;23.94;;;;;;;;;;359537;147;856001;-59
2022/02/10 19:25:52;;;;;;;47.35;24.43;;;;;;;;;;356717;149;856530;-59
2022/02/10 19:26:53;;;;;;;46.68;25.86;;;;;;;;;;357623;147;856503;-59
2022/02/10 19:27:55;;;;;;;53.06;28.13;;;;;;;;;;356473;147;864181;-59
2022/02/10 19:28:57;;;;;;;50.06;25.96;;;;;;;;;;357159;147;856289;-59
2022/02/10 19:29:59;;;;;;;42.86;24.48;;;;;;;;;;356567;148;863796;-59
2022/02/10 19:31:02;;;;;;;38.93;23.82;;;;;;;;;;357675;148;856131;-59
2022/02/10 19:32:05;;;;;;;45.31;25.56;;;;;;;;;;357485;149;864280;-59
2022/02/10 19:33:11;;;;;;;45.42;25.80;;;;;;;;;;354159;148;856520;-59
2022/02/10 19:34:10;;;;;;;42.75;24.61;;;;;;;;;;355863;147;856583;-59
2022/02/10 19:35:15;;;;;;;44.34;25.05;;;;;;;;;;356917;147;856476;-59
2022/02/10 19:36:16;;;;;;;42.63;23.96;;;;;;;;;;356574;148;863864;-59
2022/02/10 19:37:18;;;;;;;45.63;25.39;;;;;;;;;;356275;148;865571;-59
2022/02/10 19:38:22;;;;;;;43.58;25.09;;;;;;;;;;358755;147;863888;-58
2022/02/10 19:39:25;;;;;;;43.31;24.35;;;;;;;;;;357628;148;856730;-59
2022/02/10 19:40:28;;;;;;;42.53;24.56;;;;;;;;;;356853;149;856161;-59
2022/02/10 19:41:34;;;;;;;42.81;24.22;;;;;;;;;;356821;147;856009;-59
2022/02/10 19:42:35;;;;;;;37.74;22.93;;;;;;;;;;356740;148;856133;-60
2022/02/10 19:43:37;;;;;;;42.27;22.60;;;;;;;;;;357526;149;856068;-59
2022/02/10 19:44:40;;;;;;;44.21;24.45;;;;;;;;;;356784;149;863729;-59
2022/02/10 19:56:35;;;;;;;40.71;20.58;;;;;;;2.11;79.17;100077.69;370806;142;880519;-58
2022/02/10 19:57:38;;;;;;;36.93;19.10;;;;;;;;;;363363;146;856137;-59
2022/02/10 19:58:40;;;;;;;36.92;19.14;;;;;;;;;;362953;144;863739;-58
2022/02/10 19:59:41;;;;;;;35.00;19.36;;;;;;;;;;361548;146;856317;-59
2022/02/10 20:00:45;;;;;;;39.25;20.89;;;;;;;;;;364208;144;863972;-59
2022/02/10 20:01:49;;;;;;;35.48;19.70;;;;;;;;;;365458;146;863645;-59
2022/02/10 20:02:50;;;;;;;40.10;22.07;;;;;;;;;;364487;147;856089;-59
2022/02/10 20:03:52;;;;;;;36.13;21.99;;;;;;;;;;364140;146;856052;-59
2022/02/10 20:04:55;;;;;;;37.71;21.69;;;;;;;;;;364597;145;856008;-59
2022/02/10 20:05:58;;;;;;;38.23;20.88;;;;;;;;;;362684;146;863714;-61
2022/02/10 20:07:00;;;;;;;38.11;22.67;;;;;;;;;;364576;144;856078;-60
2022/02/10 20:08:02;;;;;;;34.13;21.26;;;;;;;;;;362604;146;855991;-60
2022/02/10 20:09:03;;;;;;;37.22;22.34;;;;;;;;;;364578;146;863553;-60
2022/02/10 20:10:05;;;;;;;35.67;20.91;;;;;;;;;;364113;146;863681;-60
2022/02/10 20:11:08;;;;;;;39.75;21.58;;;;;;;;;;360662;144;856349;-60
2022/02/10 20:12:11;;;;;;;36.07;21.52;;;;;;;;;;364052;144;863654;-60
2022/02/10 20:13:16;;;;;;;35.18;22.19;;;;;;;;;;363936;145;856766;-60
2022/02/10 20:14:20;;;;;;;42.17;23.43;;;;;;;;;;357280;145;856093;-61
2022/02/10 20:27:30;;;;;;;33.41;18.57;;;;;;;1.90;80.56;100058.38;371000;142;871016;-58
2022/02/10 20:28:32;;;;;;;26.67;16.23;;;;;;;1.80;80.61;100066.59;364803;147;858836;-58
2022/02/10 20:29:34;;;;;;;23.69;14.57;;;;;;;1.79;80.80;100060.59;363527;146;856277;-57